ACA61G CYUL-EGKK
Flight info
| Callsign | ACA61G |
|---|---|
| Flight time | N/A |
| Altitude | 39000 |
| Route | ANTEG DCT OBRON DCT MOBUB DCT EBMOS DCT IMORI DCT KITOP DCT CEFOU N645B RIKAL/M084F400 DCT 53N050W 54N040W 55N030W 55N020W DCT DOGAL DCT BEXET/N0491F410 DCT NORLA DCT FONZU DCT ELRIP DCT OTMET |
| Aircraft | A359/H-SDE2E3GHIJ3J4J5LM1ORWXY/LB1D1 |
Departure
| Time | 2026-05-07 11:02 |
|---|---|
| Airport | Montreal / Pierre Elliott Trudeau International Airport (CYUL) |
Arrival
| Time | N/A |
|---|---|
| Airport | London Gatwick Airport (EGKK) |
| Time | Latitude | Longitude | Altitude | Speed | Heading |
|---|---|---|---|---|---|
| 2026-05-07 10:38 | 45.45941 | -73.75137 | 113 ft | 0 kts | 180° |
| 2026-05-07 10:51 | 45.45944 | -73.75137 | 113 ft | 2 kts | 179° |
| 2026-05-07 10:51 | 45.45961 | -73.75138 | 114 ft | 2 kts | 172° |
| 2026-05-07 10:52 | 45.45977 | -73.75143 | 115 ft | 2 kts | 161° |
| 2026-05-07 10:52 | 45.45992 | -73.75153 | 114 ft | 2 kts | 139° |
| 2026-05-07 10:52 | 45.46002 | -73.75171 | 114 ft | 2 kts | 109° |
| 2026-05-07 10:52 | 45.46005 | -73.75191 | 114 ft | 1 kts | 93° |
| 2026-05-07 10:53 | 45.46005 | -73.75194 | 114 ft | 0 kts | 92° |
| 2026-05-07 10:54 | 45.46005 | -73.75188 | 114 ft | 3 kts | 90° |
| 2026-05-07 10:54 | 45.46006 | -73.75088 | 120 ft | 16 kts | 98° |
| 2026-05-07 10:55 | 45.45985 | -73.74898 | 116 ft | 26 kts | 96° |
| 2026-05-07 10:55 | 45.45967 | -73.74609 | 119 ft | 29 kts | 84° |
| 2026-05-07 10:55 | 45.46038 | -73.74338 | 116 ft | 30 kts | 51° |
| 2026-05-07 10:55 | 45.46128 | -73.74174 | 117 ft | 16 kts | 76° |
| 2026-05-07 10:56 | 45.46176 | -73.74010 | 115 ft | 22 kts | 44° |
| 2026-05-07 10:56 | 45.46282 | -73.73865 | 120 ft | 21 kts | 43° |
| 2026-05-07 10:56 | 45.46389 | -73.73721 | 121 ft | 22 kts | 42° |
| 2026-05-07 10:56 | 45.46507 | -73.73570 | 119 ft | 25 kts | 40° |
| 2026-05-07 10:57 | 45.46646 | -73.73392 | 117 ft | 28 kts | 43° |
| 2026-05-07 10:57 | 45.46808 | -73.73179 | 118 ft | 39 kts | 43° |
| 2026-05-07 10:57 | 45.46992 | -73.72938 | 120 ft | 24 kts | 43° |
| 2026-05-07 10:57 | 45.47160 | -73.72714 | 120 ft | 40 kts | 43° |
| 2026-05-07 10:58 | 45.47274 | -73.72565 | 117 ft | 9 kts | 43° |
| 2026-05-07 10:58 | 45.47335 | -73.72485 | 117 ft | 18 kts | 43° |
| 2026-05-07 10:58 | 45.47452 | -73.72332 | 117 ft | 24 kts | 43° |
| 2026-05-07 10:58 | 45.47576 | -73.72169 | 118 ft | 25 kts | 43° |
| 2026-05-07 10:59 | 45.47706 | -73.72002 | 120 ft | 25 kts | 42° |
| 2026-05-07 10:59 | 45.47790 | -73.71893 | 120 ft | 8 kts | 42° |
| 2026-05-07 10:59 | 45.47804 | -73.71813 | 120 ft | 9 kts | 101° |
| 2026-05-07 10:59 | 45.47771 | -73.71748 | 115 ft | 0 kts | 132° |
| 2026-05-07 11:00 | 45.47770 | -73.71747 | 120 ft | 0 kts | 132° |
| 2026-05-07 11:00 | 45.47770 | -73.71746 | 120 ft | 0 kts | 132° |
| 2026-05-07 11:00 | 45.47757 | -73.71727 | 114 ft | 6 kts | 136° |
| 2026-05-07 11:00 | 45.47673 | -73.71690 | 117 ft | 14 kts | 183° |
| 2026-05-07 11:01 | 45.47600 | -73.71741 | 118 ft | 4 kts | 223° |
| 2026-05-07 11:01 | 45.47600 | -73.71742 | 118 ft | 0 kts | 223° |
| 2026-05-07 11:01 | 45.47583 | -73.71763 | 118 ft | 20 kts | 223° |
| 2026-05-07 11:02 | 45.47305 | -73.72130 | 113 ft | 87 kts | 223° |
| 2026-05-07 11:02 | 45.46721 | -73.72892 | 123 ft | 139 kts | 222° |
| 2026-05-07 11:02 | 45.46011 | -73.73751 | 748 ft | 130 kts | 222° |
| 2026-05-07 11:02 | 45.45288 | -73.74573 | 1218 ft | 138 kts | 225° |
| 2026-05-07 11:03 | 45.44553 | -73.75608 | 1487 ft | 159 kts | 229° |
| 2026-05-07 11:03 | 45.43731 | -73.76808 | 1723 ft | 181 kts | 229° |
| 2026-05-07 11:03 | 45.42872 | -73.78256 | 1948 ft | 200 kts | 244° |
| 2026-05-07 11:03 | 45.42619 | -73.80268 | 2168 ft | 222 kts | 277° |
| 2026-05-07 11:04 | 45.43115 | -73.82396 | 2598 ft | 235 kts | 294° |
| 2026-05-07 11:04 | 45.43866 | -73.84501 | 3237 ft | 241 kts | 296° |
| 2026-05-07 11:04 | 45.44659 | -73.86636 | 3884 ft | 245 kts | 296° |
| 2026-05-07 11:04 | 45.45468 | -73.88779 | 4669 ft | 245 kts | 296° |
| 2026-05-07 11:05 | 45.46282 | -73.90934 | 5349 ft | 249 kts | 296° |
| 2026-05-07 11:05 | 45.47112 | -73.93110 | 6101 ft | 250 kts | 299° |
| 2026-05-07 11:05 | 45.48202 | -73.95065 | 6749 ft | 256 kts | 314° |
| 2026-05-07 11:05 | 45.49734 | -73.96420 | 7375 ft | 266 kts | 337° |
| 2026-05-07 11:06 | 45.51602 | -73.96696 | 7983 ft | 280 kts | 5° |
| 2026-05-07 11:06 | 45.53416 | -73.95601 | 8600 ft | 290 kts | 33° |
| 2026-05-07 11:06 | 45.54955 | -73.93692 | 9229 ft | 297 kts | 45° |
| 2026-05-07 11:06 | 45.56246 | -73.91355 | 9852 ft | 303 kts | 56° |
| 2026-05-07 11:07 | 45.57244 | -73.88657 | 10294 ft | 315 kts | 67° |
| 2026-05-07 11:07 | 45.57920 | -73.85604 | 10522 ft | 332 kts | 78° |
| 2026-05-07 11:07 | 45.58338 | -73.82280 | 10710 ft | 348 kts | 76° |
| 2026-05-07 11:07 | 45.58470 | -73.81643 | 10738 ft | 352 kts | 71° |
| 2026-05-07 11:08 | 45.58966 | -73.80057 | 10874 ft | 359 kts | 59° |
| 2026-05-07 11:08 | 45.60423 | -73.77091 | 11083 ft | 372 kts | 49° |
| 2026-05-07 11:08 | 45.62200 | -73.74318 | 11322 ft | 384 kts | 44° |
| 2026-05-07 11:08 | 45.64146 | -73.71641 | 11662 ft | 392 kts | 41° |
| 2026-05-07 11:09 | 45.66164 | -73.68970 | 12130 ft | 397 kts | 41° |
| 2026-05-07 11:09 | 45.68199 | -73.66266 | 12582 ft | 402 kts | 41° |
| 2026-05-07 11:09 | 45.70213 | -73.63534 | 13024 ft | 407 kts | 42° |
| 2026-05-07 11:09 | 45.72267 | -73.60690 | 13462 ft | 412 kts | 43° |
| 2026-05-07 11:10 | 45.74325 | -73.57796 | 13864 ft | 417 kts | 43° |
| 2026-05-07 11:10 | 45.76394 | -73.54857 | 14274 ft | 420 kts | 44° |
| 2026-05-07 11:10 | 45.78471 | -73.51891 | 14729 ft | 423 kts | 44° |
| 2026-05-07 11:10 | 45.80561 | -73.48900 | 15174 ft | 426 kts | 44° |
| 2026-05-07 11:11 | 45.82668 | -73.45884 | 15605 ft | 430 kts | 44° |
| 2026-05-07 11:11 | 45.84797 | -73.42835 | 16016 ft | 433 kts | 44° |
| 2026-05-07 11:11 | 45.86944 | -73.39759 | 16454 ft | 437 kts | 44° |
| 2026-05-07 11:11 | 45.89081 | -73.36633 | 16886 ft | 441 kts | 46° |
| 2026-05-07 11:12 | 45.91191 | -73.33418 | 17299 ft | 444 kts | 46° |
| 2026-05-07 11:12 | 45.93297 | -73.30150 | 17710 ft | 448 kts | 47° |
| 2026-05-07 11:12 | 45.95416 | -73.26848 | 18133 ft | 450 kts | 47° |
| 2026-05-07 11:12 | 45.97553 | -73.23538 | 18522 ft | 452 kts | 47° |
| 2026-05-07 11:13 | 45.99701 | -73.20212 | 18870 ft | 455 kts | 47° |
| 2026-05-07 11:13 | 46.01868 | -73.16859 | 19234 ft | 458 kts | 46° |
| 2026-05-07 11:13 | 46.04047 | -73.13491 | 19571 ft | 461 kts | 46° |
| 2026-05-07 11:13 | 46.06239 | -73.10103 | 19872 ft | 464 kts | 46° |
| 2026-05-07 11:14 | 46.08445 | -73.06691 | 20164 ft | 468 kts | 46° |
| 2026-05-07 11:14 | 46.10673 | -73.03245 | 20526 ft | 470 kts | 46° |
| 2026-05-07 11:14 | 46.12904 | -72.99792 | 20983 ft | 470 kts | 46° |
| 2026-05-07 11:14 | 46.15128 | -72.96343 | 21403 ft | 472 kts | 46° |
| 2026-05-07 11:15 | 46.17242 | -72.92693 | 21710 ft | 475 kts | 54° |
| 2026-05-07 11:15 | 46.19081 | -72.88793 | 22049 ft | 477 kts | 58° |
| 2026-05-07 11:15 | 46.20862 | -72.84739 | 22391 ft | 480 kts | 59° |
| 2026-05-07 11:15 | 46.22602 | -72.80608 | 22730 ft | 482 kts | 60° |
| 2026-05-07 11:16 | 46.24328 | -72.76424 | 23057 ft | 485 kts | 60° |
| 2026-05-07 11:16 | 46.26053 | -72.72213 | 23394 ft | 487 kts | 60° |
| 2026-05-07 11:16 | 46.27198 | -72.69415 | 23569 ft | 489 kts | 60° |
| 2026-05-07 11:16 | 46.28934 | -72.65183 | 23923 ft | 489 kts | 61° |
| 2026-05-07 11:17 | 46.30673 | -72.60950 | 24185 ft | 491 kts | 60° |
| 2026-05-07 11:17 | 46.32430 | -72.56679 | 24438 ft | 494 kts | 60° |
| 2026-05-07 11:17 | 46.34194 | -72.52393 | 24702 ft | 496 kts | 60° |
| 2026-05-07 11:17 | 46.35967 | -72.48083 | 24884 ft | 500 kts | 60° |
| 2026-05-07 11:18 | 46.37753 | -72.43735 | 25118 ft | 503 kts | 60° |
| 2026-05-07 11:18 | 46.39541 | -72.39375 | 25392 ft | 505 kts | 60° |
| 2026-05-07 11:18 | 46.41337 | -72.34987 | 25667 ft | 507 kts | 60° |
| 2026-05-07 11:18 | 46.43117 | -72.30633 | 25929 ft | 509 kts | 61° |
| 2026-05-07 11:19 | 46.44921 | -72.26213 | 26246 ft | 510 kts | 61° |
| 2026-05-07 11:19 | 46.46732 | -72.21768 | 26505 ft | 512 kts | 61° |
| 2026-05-07 11:19 | 46.48547 | -72.17303 | 26782 ft | 515 kts | 61° |
| 2026-05-07 11:19 | 46.50370 | -72.12812 | 27055 ft | 517 kts | 61° |
| 2026-05-07 11:20 | 46.52203 | -72.08290 | 27325 ft | 520 kts | 61° |
| 2026-05-07 11:20 | 46.54037 | -72.03758 | 27615 ft | 522 kts | 61° |
| 2026-05-07 11:20 | 46.55880 | -71.99199 | 27910 ft | 525 kts | 61° |
| 2026-05-07 11:20 | 46.57733 | -71.94609 | 28223 ft | 527 kts | 61° |
| 2026-05-07 11:21 | 46.59589 | -71.90003 | 28464 ft | 529 kts | 61° |
| 2026-05-07 11:21 | 46.61450 | -71.85369 | 28742 ft | 532 kts | 61° |
| 2026-05-07 11:21 | 46.63319 | -71.80711 | 29029 ft | 534 kts | 61° |
| 2026-05-07 11:21 | 46.65196 | -71.76023 | 29293 ft | 537 kts | 61° |
| 2026-05-07 11:22 | 46.67078 | -71.71314 | 29556 ft | 539 kts | 61° |
| 2026-05-07 11:22 | 46.68970 | -71.66582 | 29837 ft | 542 kts | 61° |
| 2026-05-07 11:22 | 46.71110 | -71.62023 | 30048 ft | 545 kts | 51° |
| 2026-05-07 11:22 | 46.73531 | -71.57755 | 30296 ft | 547 kts | 50° |
| 2026-05-07 11:23 | 46.76019 | -71.53553 | 30595 ft | 548 kts | 49° |
| 2026-05-07 11:23 | 46.78453 | -71.49258 | 30797 ft | 550 kts | 54° |
| 2026-05-07 11:23 | 46.80567 | -71.44583 | 30991 ft | 552 kts | 59° |
| 2026-05-07 11:23 | 46.82578 | -71.39798 | 31185 ft | 554 kts | 60° |
| 2026-05-07 11:24 | 46.84521 | -71.35006 | 31361 ft | 556 kts | 61° |
| 2026-05-07 11:24 | 46.86462 | -71.30112 | 31513 ft | 558 kts | 61° |
| 2026-05-07 11:24 | 46.88401 | -71.25176 | 31703 ft | 559 kts | 61° |
| 2026-05-07 11:24 | 46.90334 | -71.20242 | 32104 ft | 556 kts | 61° |
| 2026-05-07 11:25 | 46.92254 | -71.15339 | 32386 ft | 556 kts | 61° |
| 2026-05-07 11:25 | 46.94182 | -71.10417 | 32610 ft | 557 kts | 61° |
| 2026-05-07 11:25 | 46.96116 | -71.05483 | 32835 ft | 558 kts | 61° |
| 2026-05-07 11:25 | 46.98047 | -71.00554 | 33050 ft | 558 kts | 61° |
| 2026-05-07 11:26 | 46.99980 | -70.95614 | 33293 ft | 559 kts | 61° |
| 2026-05-07 11:26 | 47.01913 | -70.90667 | 33494 ft | 559 kts | 61° |
| 2026-05-07 11:26 | 47.03822 | -70.85774 | 33746 ft | 559 kts | 61° |
| 2026-05-07 11:26 | 47.05745 | -70.80835 | 34093 ft | 556 kts | 61° |
| 2026-05-07 11:27 | 47.07657 | -70.75914 | 34363 ft | 554 kts | 61° |
| 2026-05-07 11:27 | 47.09561 | -70.71002 | 34453 ft | 555 kts | 61° |
| 2026-05-07 11:27 | 47.11475 | -70.66055 | 34564 ft | 557 kts | 61° |
| 2026-05-07 11:27 | 47.13387 | -70.61106 | 34793 ft | 555 kts | 61° |
| 2026-05-07 11:28 | 47.15286 | -70.56181 | 35112 ft | 553 kts | 61° |
| 2026-05-07 11:28 | 47.17165 | -70.51301 | 35692 ft | 542 kts | 61° |
| 2026-05-07 11:28 | 47.18991 | -70.46552 | 36542 ft | 526 kts | 61° |
| 2026-05-07 11:28 | 47.20764 | -70.41929 | 37322 ft | 513 kts | 61° |
| 2026-05-07 11:29 | 47.22513 | -70.37362 | 37608 ft | 512 kts | 61° |
| 2026-05-07 11:29 | 47.24261 | -70.32785 | 37701 ft | 514 kts | 61° |
| 2026-05-07 11:29 | 47.27754 | -70.23621 | 37817 ft | 519 kts | 61° |
| 2026-05-07 11:30 | 47.31303 | -70.14279 | 37949 ft | 524 kts | 61° |
| 2026-05-07 11:30 | 47.34872 | -70.04855 | 38102 ft | 528 kts | 62° |
| 2026-05-07 11:31 | 47.36663 | -70.00114 | 38228 ft | 529 kts | 62° |
| 2026-05-07 11:31 | 47.38448 | -69.95378 | 38402 ft | 528 kts | 62° |
| 2026-05-07 11:31 | 47.40232 | -69.90637 | 38524 ft | 528 kts | 62° |
| 2026-05-07 11:31 | 47.42014 | -69.85896 | 38643 ft | 528 kts | 62° |
| 2026-05-07 11:32 | 47.47359 | -69.71615 | 38736 ft | 529 kts | 62° |
| 2026-05-07 11:33 | 47.50906 | -69.62098 | 38734 ft | 528 kts | 62° |
| 2026-05-07 11:33 | 47.54440 | -69.52580 | 38700 ft | 527 kts | 62° |
| 2026-05-07 11:34 | 47.57967 | -69.43047 | 38740 ft | 528 kts | 62° |
| 2026-05-07 11:34 | 47.61488 | -69.33496 | 38740 ft | 528 kts | 62° |
| 2026-05-07 11:35 | 47.65002 | -69.23931 | 38740 ft | 528 kts | 63° |
| 2026-05-07 11:35 | 47.68505 | -69.14359 | 38739 ft | 528 kts | 63° |
| 2026-05-07 11:36 | 47.71976 | -69.04843 | 38738 ft | 528 kts | 63° |
| 2026-05-07 11:36 | 47.75481 | -68.95238 | 38735 ft | 528 kts | 62° |
| 2026-05-07 11:37 | 47.79026 | -68.85672 | 38733 ft | 528 kts | 62° |
| 2026-05-07 11:37 | 47.82576 | -68.76091 | 38733 ft | 527 kts | 62° |
| 2026-05-07 11:38 | 47.86078 | -68.66581 | 38732 ft | 527 kts | 62° |
| 2026-05-07 11:38 | 47.89592 | -68.56989 | 38729 ft | 527 kts | 63° |
| 2026-05-07 11:39 | 47.93091 | -68.47402 | 38732 ft | 527 kts | 63° |
| 2026-05-07 11:39 | 47.96595 | -68.37765 | 38725 ft | 526 kts | 63° |
| 2026-05-07 11:40 | 48.00077 | -68.28152 | 38725 ft | 526 kts | 63° |
| 2026-05-07 11:40 | 48.03549 | -68.18534 | 38717 ft | 526 kts | 63° |
| 2026-05-07 11:41 | 48.07017 | -68.08891 | 38731 ft | 526 kts | 63° |
| 2026-05-07 11:41 | 48.10473 | -67.99246 | 38708 ft | 525 kts | 63° |
| 2026-05-07 11:42 | 48.13915 | -67.89604 | 38710 ft | 525 kts | 63° |
| 2026-05-07 11:42 | 48.17346 | -67.79959 | 38705 ft | 525 kts | 63° |
| 2026-05-07 11:43 | 48.20772 | -67.70292 | 38697 ft | 525 kts | 63° |
| 2026-05-07 11:43 | 48.24189 | -67.60615 | 38694 ft | 524 kts | 64° |
| 2026-05-07 11:44 | 48.27591 | -67.50942 | 38692 ft | 524 kts | 64° |
| 2026-05-07 11:44 | 48.30984 | -67.41261 | 38685 ft | 524 kts | 64° |
| 2026-05-07 11:45 | 48.34349 | -67.31626 | 38686 ft | 524 kts | 64° |
| 2026-05-07 11:45 | 48.37724 | -67.21922 | 38676 ft | 523 kts | 64° |
| 2026-05-07 11:46 | 48.41092 | -67.12206 | 38676 ft | 522 kts | 64° |
| 2026-05-07 11:46 | 48.44443 | -67.02500 | 38674 ft | 522 kts | 64° |
| 2026-05-07 11:47 | 48.47771 | -66.92825 | 38655 ft | 522 kts | 64° |
| 2026-05-07 11:47 | 48.51109 | -66.83084 | 38676 ft | 523 kts | 64° |
| 2026-05-07 11:48 | 48.54434 | -66.73344 | 38666 ft | 522 kts | 64° |
| 2026-05-07 11:48 | 48.57751 | -66.63590 | 38658 ft | 521 kts | 65° |
| 2026-05-07 11:49 | 48.61057 | -66.53831 | 38658 ft | 521 kts | 65° |
| 2026-05-07 11:49 | 48.64352 | -66.44069 | 38664 ft | 521 kts | 65° |
| 2026-05-07 11:50 | 48.67643 | -66.34281 | 38664 ft | 521 kts | 65° |
| 2026-05-07 11:50 | 48.70922 | -66.24492 | 38652 ft | 522 kts | 65° |
| 2026-05-07 11:51 | 48.74179 | -66.14730 | 38642 ft | 522 kts | 65° |
| 2026-05-07 11:51 | 48.77445 | -66.04902 | 38646 ft | 522 kts | 65° |
| 2026-05-07 11:52 | 48.80703 | -65.95065 | 38647 ft | 521 kts | 65° |
| 2026-05-07 11:52 | 48.83944 | -65.85238 | 38632 ft | 520 kts | 65° |
| 2026-05-07 11:53 | 48.87177 | -65.75400 | 38635 ft | 520 kts | 65° |
| 2026-05-07 11:53 | 48.90399 | -65.65553 | 38636 ft | 520 kts | 65° |
| 2026-05-07 11:54 | 48.93615 | -65.55689 | 38621 ft | 521 kts | 66° |
| 2026-05-07 11:54 | 48.96804 | -65.45869 | 38627 ft | 520 kts | 66° |
| 2026-05-07 11:55 | 49.00002 | -65.35983 | 38625 ft | 520 kts | 66° |
| 2026-05-07 11:55 | 49.03193 | -65.26077 | 38611 ft | 520 kts | 66° |
| 2026-05-07 11:56 | 49.06376 | -65.16159 | 38616 ft | 520 kts | 66° |
| 2026-05-07 11:56 | 49.09552 | -65.06224 | 38609 ft | 520 kts | 66° |
| 2026-05-07 11:57 | 49.12713 | -64.96297 | 38594 ft | 520 kts | 66° |
| 2026-05-07 11:57 | 49.15864 | -64.86362 | 38596 ft | 520 kts | 66° |
| 2026-05-07 11:58 | 49.18992 | -64.76458 | 38576 ft | 520 kts | 66° |
| 2026-05-07 11:58 | 49.21623 | -64.68100 | 38587 ft | 521 kts | 67° |
| 2026-05-07 11:59 | 49.25257 | -64.56506 | 38585 ft | 519 kts | 67° |
| 2026-05-07 11:59 | 49.28369 | -64.46536 | 38560 ft | 519 kts | 67° |
| 2026-05-07 12:00 | 49.30967 | -64.38180 | 38561 ft | 518 kts | 67° |
| 2026-05-07 12:00 | 49.34042 | -64.28254 | 38560 ft | 519 kts | 67° |
| 2026-05-07 12:01 | 49.37132 | -64.18240 | 38566 ft | 518 kts | 68° |
| 2026-05-07 12:01 | 49.40211 | -64.08222 | 38567 ft | 519 kts | 68° |
| 2026-05-07 12:02 | 49.43286 | -63.98172 | 38564 ft | 519 kts | 68° |
| 2026-05-07 12:02 | 49.46352 | -63.88115 | 38559 ft | 519 kts | 68° |
| 2026-05-07 12:03 | 49.49386 | -63.78121 | 38555 ft | 519 kts | 68° |
| 2026-05-07 12:03 | 49.52426 | -63.68064 | 38552 ft | 519 kts | 68° |
| 2026-05-07 12:04 | 49.55454 | -63.58009 | 38559 ft | 519 kts | 68° |
| 2026-05-07 12:04 | 49.58479 | -63.47918 | 38535 ft | 518 kts | 68° |
| 2026-05-07 12:05 | 49.61499 | -63.37805 | 38549 ft | 519 kts | 68° |
| 2026-05-07 12:05 | 49.64512 | -63.27674 | 38554 ft | 519 kts | 69° |
| 2026-05-07 12:06 | 49.67508 | -63.17556 | 38554 ft | 518 kts | 69° |
| 2026-05-07 12:06 | 49.70502 | -63.07401 | 38551 ft | 518 kts | 69° |
| 2026-05-07 12:07 | 49.73469 | -62.97297 | 38555 ft | 519 kts | 69° |
| 2026-05-07 12:07 | 49.76444 | -62.87124 | 38557 ft | 518 kts | 69° |
| 2026-05-07 12:08 | 49.79407 | -62.76948 | 38530 ft | 518 kts | 69° |
| 2026-05-07 12:08 | 49.82362 | -62.66760 | 38550 ft | 519 kts | 69° |
| 2026-05-07 12:09 | 49.85308 | -62.56555 | 38568 ft | 519 kts | 69° |
| 2026-05-07 12:09 | 49.88228 | -62.46399 | 38572 ft | 519 kts | 69° |
| 2026-05-07 12:10 | 49.91155 | -62.36175 | 38573 ft | 518 kts | 69° |
| 2026-05-07 12:10 | 49.94073 | -62.25936 | 38573 ft | 519 kts | 70° |
| 2026-05-07 12:11 | 49.96989 | -62.15665 | 38597 ft | 518 kts | 70° |
| 2026-05-07 12:11 | 49.99892 | -62.05392 | 38623 ft | 518 kts | 70° |
| 2026-05-07 12:12 | 50.02781 | -61.95123 | 38624 ft | 519 kts | 70° |
| 2026-05-07 12:12 | 50.05650 | -61.84882 | 38655 ft | 519 kts | 70° |
| 2026-05-07 12:13 | 50.08526 | -61.74573 | 38655 ft | 519 kts | 70° |
| 2026-05-07 12:13 | 50.11393 | -61.64248 | 38654 ft | 518 kts | 70° |
| 2026-05-07 12:14 | 50.14231 | -61.53985 | 38658 ft | 518 kts | 70° |
| 2026-05-07 12:14 | 50.17081 | -61.43636 | 38666 ft | 517 kts | 70° |
| 2026-05-07 12:15 | 50.19911 | -61.33312 | 38675 ft | 516 kts | 70° |
| 2026-05-07 12:15 | 50.22721 | -61.23014 | 38688 ft | 515 kts | 71° |
| 2026-05-07 12:16 | 50.25502 | -61.12777 | 38687 ft | 514 kts | 71° |
| 2026-05-07 12:16 | 50.28287 | -61.02479 | 38700 ft | 514 kts | 71° |
| 2026-05-07 12:17 | 50.31060 | -60.92182 | 38706 ft | 513 kts | 71° |
| 2026-05-07 12:17 | 50.33824 | -60.81870 | 38708 ft | 513 kts | 71° |
| 2026-05-07 12:18 | 50.36577 | -60.71551 | 38718 ft | 513 kts | 71° |
| 2026-05-07 12:18 | 50.39323 | -60.61217 | 38736 ft | 513 kts | 71° |
| 2026-05-07 12:19 | 50.42044 | -60.50931 | 38738 ft | 513 kts | 71° |
| 2026-05-07 12:19 | 50.44770 | -60.40579 | 38744 ft | 513 kts | 71° |
| 2026-05-07 12:20 | 50.47484 | -60.30225 | 38773 ft | 513 kts | 72° |
| 2026-05-07 12:20 | 50.50194 | -60.19840 | 38770 ft | 513 kts | 72° |
| 2026-05-07 12:21 | 50.52889 | -60.09464 | 38780 ft | 513 kts | 72° |
| 2026-05-07 12:21 | 50.55574 | -59.99077 | 38795 ft | 513 kts | 72° |
| 2026-05-07 12:22 | 50.58250 | -59.88683 | 38805 ft | 512 kts | 72° |
| 2026-05-07 12:22 | 50.60898 | -59.78346 | 38806 ft | 512 kts | 72° |
| 2026-05-07 12:23 | 50.63558 | -59.67915 | 38824 ft | 513 kts | 72° |
| 2026-05-07 12:23 | 50.66211 | -59.57464 | 38823 ft | 514 kts | 72° |
| 2026-05-07 12:24 | 50.68858 | -59.46987 | 38825 ft | 514 kts | 72° |
| 2026-05-07 12:24 | 50.71498 | -59.36489 | 38831 ft | 515 kts | 72° |
| 2026-05-07 12:25 | 50.74131 | -59.25970 | 38831 ft | 515 kts | 73° |
| 2026-05-07 12:25 | 50.76736 | -59.15517 | 38834 ft | 515 kts | 73° |
| 2026-05-07 12:26 | 50.79347 | -59.04983 | 38838 ft | 514 kts | 73° |
| 2026-05-07 12:26 | 50.81948 | -58.94447 | 38838 ft | 514 kts | 73° |
| 2026-05-07 12:27 | 50.84541 | -58.83890 | 38837 ft | 514 kts | 73° |
| 2026-05-07 12:27 | 50.87124 | -58.73319 | 38840 ft | 514 kts | 73° |
| 2026-05-07 12:28 | 50.89680 | -58.62813 | 38838 ft | 514 kts | 73° |
| 2026-05-07 12:28 | 50.92243 | -58.52225 | 38845 ft | 514 kts | 73° |
| 2026-05-07 12:29 | 50.94798 | -58.41622 | 38846 ft | 514 kts | 73° |
| 2026-05-07 12:29 | 50.97326 | -58.31078 | 38854 ft | 514 kts | 73° |
| 2026-05-07 12:30 | 50.99856 | -58.20473 | 38824 ft | 514 kts | 73° |
| 2026-05-07 12:30 | 51.02382 | -58.09830 | 38854 ft | 515 kts | 73° |
| 2026-05-07 12:31 | 51.04901 | -57.99170 | 38855 ft | 515 kts | 73° |
| 2026-05-07 12:31 | 51.07410 | -57.88497 | 38872 ft | 515 kts | 73° |
| 2026-05-07 12:32 | 51.09910 | -57.77812 | 38880 ft | 515 kts | 73° |
| 2026-05-07 12:32 | 51.12384 | -57.67185 | 38880 ft | 515 kts | 74° |
| 2026-05-07 12:33 | 51.16097 | -57.51134 | 38891 ft | 515 kts | 74° |
| 2026-05-07 12:33 | 51.18559 | -57.40421 | 38862 ft | 515 kts | 74° |
| 2026-05-07 12:34 | 51.21013 | -57.29695 | 38904 ft | 515 kts | 74° |
| 2026-05-07 12:34 | 51.23458 | -57.18948 | 38911 ft | 515 kts | 74° |
| 2026-05-07 12:35 | 51.25892 | -57.08197 | 38920 ft | 515 kts | 75° |
| 2026-05-07 12:35 | 51.28316 | -56.97436 | 38919 ft | 515 kts | 75° |
| 2026-05-07 12:36 | 51.30714 | -56.86736 | 38930 ft | 515 kts | 75° |
| 2026-05-07 12:36 | 51.33117 | -56.75957 | 38925 ft | 515 kts | 75° |
| 2026-05-07 12:37 | 51.35509 | -56.65172 | 38926 ft | 515 kts | 75° |
| 2026-05-07 12:37 | 51.37896 | -56.54359 | 38913 ft | 514 kts | 75° |
| 2026-05-07 12:38 | 51.40271 | -56.43538 | 38936 ft | 514 kts | 75° |
| 2026-05-07 12:38 | 51.42235 | -56.34543 | 38939 ft | 514 kts | 75° |
| 2026-05-07 12:39 | 51.44623 | -56.23559 | 38933 ft | 514 kts | 76° |
| 2026-05-07 12:39 | 51.46965 | -56.12726 | 38932 ft | 514 kts | 76° |
| 2026-05-07 12:40 | 51.49300 | -56.01871 | 38927 ft | 514 kts | 76° |
| 2026-05-07 12:40 | 51.51623 | -55.91013 | 38940 ft | 514 kts | 76° |
| 2026-05-07 12:41 | 51.53939 | -55.80129 | 38946 ft | 514 kts | 76° |
| 2026-05-07 12:41 | 51.56240 | -55.69259 | 38952 ft | 514 kts | 76° |
| 2026-05-07 12:42 | 51.58523 | -55.58424 | 38962 ft | 509 kts | 76° |
| 2026-05-07 12:42 | 51.60779 | -55.47651 | 38964 ft | 507 kts | 76° |
| 2026-05-07 12:43 | 51.63021 | -55.36879 | 38962 ft | 508 kts | 76° |
| 2026-05-07 12:43 | 51.65256 | -55.26082 | 38970 ft | 508 kts | 76° |
| 2026-05-07 12:44 | 51.67109 | -55.17096 | 38964 ft | 508 kts | 77° |
| 2026-05-07 12:44 | 51.69684 | -55.04539 | 38967 ft | 508 kts | 77° |
| 2026-05-07 12:45 | 51.71532 | -54.95473 | 38970 ft | 508 kts | 77° |
| 2026-05-07 12:45 | 51.73718 | -54.84693 | 38975 ft | 509 kts | 77° |
| 2026-05-07 12:46 | 51.75912 | -54.73822 | 38979 ft | 509 kts | 77° |
| 2026-05-07 12:46 | 51.78095 | -54.62949 | 38978 ft | 509 kts | 77° |
| 2026-05-07 12:47 | 51.80444 | -54.52155 | 39003 ft | 513 kts | 70° |
| 2026-05-07 12:47 | 51.83380 | -54.41639 | 38990 ft | 514 kts | 69° |
| 2026-05-07 12:48 | 51.86422 | -54.31148 | 38990 ft | 515 kts | 68° |
| 2026-05-07 12:48 | 51.89469 | -54.20649 | 39002 ft | 515 kts | 69° |
| 2026-05-07 12:49 | 51.92497 | -54.10128 | 39005 ft | 515 kts | 69° |
| 2026-05-07 12:49 | 51.95490 | -53.99651 | 38966 ft | 515 kts | 69° |
| 2026-05-07 12:50 | 51.98492 | -53.89089 | 39006 ft | 516 kts | 69° |
| 2026-05-07 12:50 | 52.01487 | -53.78505 | 39020 ft | 515 kts | 69° |
| 2026-05-07 12:51 | 52.04475 | -53.67901 | 39016 ft | 515 kts | 69° |
| 2026-05-07 12:51 | 52.07448 | -53.57302 | 39020 ft | 515 kts | 69° |
| 2026-05-07 12:52 | 52.10398 | -53.46738 | 39022 ft | 516 kts | 69° |
| 2026-05-07 12:52 | 52.13357 | -53.36093 | 39032 ft | 516 kts | 69° |
| 2026-05-07 12:53 | 52.16308 | -53.25431 | 39028 ft | 516 kts | 69° |
| 2026-05-07 12:53 | 52.19249 | -53.14754 | 39036 ft | 516 kts | 69° |
| 2026-05-07 12:54 | 52.22161 | -53.04130 | 39030 ft | 516 kts | 69° |
| 2026-05-07 12:54 | 52.25083 | -52.93423 | 39042 ft | 516 kts | 69° |
| 2026-05-07 12:55 | 52.27990 | -52.82724 | 39042 ft | 515 kts | 69° |
| 2026-05-07 12:55 | 52.30883 | -52.72026 | 39051 ft | 514 kts | 69° |
| 2026-05-07 12:56 | 52.33763 | -52.61325 | 39056 ft | 514 kts | 69° |
| 2026-05-07 12:56 | 52.36638 | -52.50591 | 39054 ft | 515 kts | 69° |
| 2026-05-07 12:57 | 52.39484 | -52.39916 | 39052 ft | 515 kts | 69° |
| 2026-05-07 12:57 | 52.42338 | -52.29164 | 39054 ft | 515 kts | 69° |
| 2026-05-07 12:58 | 52.45188 | -52.18375 | 39056 ft | 515 kts | 69° |
| 2026-05-07 12:58 | 52.48026 | -52.07579 | 39058 ft | 515 kts | 70° |
| 2026-05-07 12:59 | 52.50834 | -51.96846 | 39066 ft | 515 kts | 70° |
| 2026-05-07 12:59 | 52.53649 | -51.86038 | 39065 ft | 514 kts | 70° |
| 2026-05-07 13:00 | 52.56459 | -51.75197 | 39066 ft | 515 kts | 70° |
| 2026-05-07 13:00 | 52.59253 | -51.64360 | 39066 ft | 515 kts | 70° |
| 2026-05-07 13:01 | 52.62018 | -51.53587 | 39073 ft | 514 kts | 70° |
| 2026-05-07 13:01 | 52.64791 | -51.42732 | 39073 ft | 514 kts | 70° |
| 2026-05-07 13:02 | 52.67559 | -51.31844 | 39071 ft | 514 kts | 70° |
| 2026-05-07 13:02 | 52.70310 | -51.20969 | 39075 ft | 514 kts | 70° |
| 2026-05-07 13:03 | 52.73051 | -51.10077 | 39083 ft | 514 kts | 70° |
| 2026-05-07 13:03 | 52.75781 | -50.99179 | 39085 ft | 514 kts | 70° |
| 2026-05-07 13:04 | 52.78503 | -50.88260 | 39086 ft | 514 kts | 70° |
| 2026-05-07 13:04 | 52.81196 | -50.77405 | 39085 ft | 514 kts | 70° |
| 2026-05-07 13:05 | 52.83895 | -50.66467 | 39095 ft | 513 kts | 69° |
| 2026-05-07 13:05 | 52.86576 | -50.55553 | 39096 ft | 511 kts | 69° |
| 2026-05-07 13:06 | 52.89247 | -50.44627 | 39102 ft | 511 kts | 69° |
| 2026-05-07 13:06 | 52.91904 | -50.33699 | 39101 ft | 511 kts | 69° |
| 2026-05-07 13:07 | 52.94531 | -50.22839 | 39099 ft | 511 kts | 69° |
| 2026-05-07 13:07 | 52.97162 | -50.11909 | 39103 ft | 509 kts | 69° |
| 2026-05-07 13:08 | 52.99706 | -50.00978 | 39102 ft | 506 kts | 74° |
| 2026-05-07 13:08 | 53.01520 | -49.89703 | 39101 ft | 505 kts | 78° |
| 2026-05-07 13:09 | 53.03162 | -49.78344 | 39111 ft | 505 kts | 79° |
| 2026-05-07 13:09 | 53.04749 | -49.67056 | 39094 ft | 505 kts | 78° |
| 2026-05-07 13:10 | 53.06347 | -49.55671 | 39110 ft | 499 kts | 78° |
| 2026-05-07 13:10 | 53.07908 | -49.44535 | 39117 ft | 497 kts | 78° |
| 2026-05-07 13:11 | 53.09470 | -49.33321 | 39115 ft | 497 kts | 78° |
| 2026-05-07 13:11 | 53.11024 | -49.22078 | 39115 ft | 497 kts | 78° |
| 2026-05-07 13:12 | 53.12563 | -49.10856 | 39121 ft | 497 kts | 78° |
| 2026-05-07 13:12 | 53.14083 | -48.99693 | 39126 ft | 497 kts | 78° |
| 2026-05-07 13:13 | 53.15602 | -48.88449 | 39121 ft | 497 kts | 79° |
| 2026-05-07 13:13 | 53.17110 | -48.77200 | 39117 ft | 497 kts | 78° |
| 2026-05-07 13:14 | 53.18606 | -48.65957 | 39127 ft | 495 kts | 78° |
| 2026-05-07 13:14 | 53.20089 | -48.54725 | 39127 ft | 495 kts | 79° |
| 2026-05-07 13:15 | 53.21558 | -48.43507 | 39136 ft | 495 kts | 78° |
| 2026-05-07 13:15 | 53.23018 | -48.32268 | 39133 ft | 495 kts | 78° |
| 2026-05-07 13:16 | 53.24468 | -48.21018 | 39133 ft | 495 kts | 78° |
| 2026-05-07 13:16 | 53.25900 | -48.09828 | 39132 ft | 495 kts | 79° |
| 2026-05-07 13:17 | 53.27329 | -47.98563 | 39144 ft | 495 kts | 79° |
| 2026-05-07 13:17 | 53.28748 | -47.87281 | 39140 ft | 495 kts | 78° |
| 2026-05-07 13:18 | 53.30152 | -47.76026 | 39143 ft | 493 kts | 78° |
| 2026-05-07 13:18 | 53.31542 | -47.64802 | 39149 ft | 493 kts | 78° |
| 2026-05-07 13:19 | 53.32914 | -47.53628 | 39148 ft | 493 kts | 78° |
| 2026-05-07 13:19 | 53.34284 | -47.42381 | 39148 ft | 493 kts | 78° |
| 2026-05-07 13:20 | 53.35642 | -47.31127 | 39154 ft | 493 kts | 78° |
| 2026-05-07 13:20 | 53.36990 | -47.19864 | 39157 ft | 494 kts | 78° |
| 2026-05-07 13:21 | 53.38332 | -47.08563 | 39154 ft | 494 kts | 78° |
| 2026-05-07 13:21 | 53.39661 | -46.97265 | 39153 ft | 494 kts | 78° |
| 2026-05-07 13:22 | 53.40968 | -46.86066 | 39162 ft | 491 kts | 78° |
| 2026-05-07 13:22 | 53.42268 | -46.74829 | 39162 ft | 490 kts | 78° |
| 2026-05-07 13:23 | 53.43556 | -46.63596 | 39162 ft | 490 kts | 78° |
| 2026-05-07 13:23 | 53.44834 | -46.52351 | 39170 ft | 490 kts | 78° |
| 2026-05-07 13:24 | 53.46103 | -46.41088 | 39171 ft | 490 kts | 79° |
| 2026-05-07 13:24 | 53.47359 | -46.29835 | 39170 ft | 490 kts | 79° |
| 2026-05-07 13:25 | 53.48597 | -46.18645 | 39175 ft | 490 kts | 79° |
| 2026-05-07 13:25 | 53.49830 | -46.07392 | 39163 ft | 490 kts | 79° |
| 2026-05-07 13:26 | 53.51053 | -45.96132 | 39176 ft | 489 kts | 78° |
| 2026-05-07 13:26 | 53.52261 | -45.84906 | 39181 ft | 488 kts | 78° |
| 2026-05-07 13:27 | 53.53459 | -45.73676 | 39181 ft | 488 kts | 79° |
| 2026-05-07 13:27 | 53.54648 | -45.62425 | 39181 ft | 488 kts | 79° |
| 2026-05-07 13:28 | 53.55817 | -45.51248 | 39186 ft | 488 kts | 79° |
| 2026-05-07 13:28 | 53.56985 | -45.39980 | 39187 ft | 488 kts | 79° |
| 2026-05-07 13:29 | 53.58142 | -45.28711 | 39189 ft | 488 kts | 79° |
| 2026-05-07 13:29 | 53.59289 | -45.17424 | 39189 ft | 489 kts | 79° |
| 2026-05-07 13:30 | 53.60415 | -45.06232 | 39194 ft | 487 kts | 78° |
| 2026-05-07 13:30 | 53.61534 | -44.95001 | 39196 ft | 485 kts | 79° |
| 2026-05-07 13:31 | 53.62643 | -44.83773 | 39197 ft | 486 kts | 78° |
| 2026-05-07 13:31 | 53.63741 | -44.72535 | 39200 ft | 486 kts | 79° |
| 2026-05-07 13:32 | 53.64645 | -44.63193 | 39200 ft | 486 kts | 79° |
| 2026-05-07 13:32 | 53.65725 | -44.51939 | 39200 ft | 486 kts | 79° |
| 2026-05-07 13:33 | 53.66793 | -44.40678 | 39206 ft | 486 kts | 79° |
| 2026-05-07 13:33 | 53.67851 | -44.29416 | 39206 ft | 486 kts | 79° |
| 2026-05-07 13:34 | 53.69419 | -44.12495 | 39206 ft | 486 kts | 78° |
| 2026-05-07 13:35 | 53.70450 | -44.01224 | 39212 ft | 485 kts | 78° |
| 2026-05-07 13:35 | 53.71463 | -43.90022 | 39211 ft | 485 kts | 79° |
| 2026-05-07 13:36 | 53.72473 | -43.78746 | 39212 ft | 486 kts | 79° |
| 2026-05-07 13:36 | 53.73474 | -43.67433 | 39235 ft | 485 kts | 79° |
| 2026-05-07 13:37 | 53.74464 | -43.56126 | 39220 ft | 488 kts | 79° |
| 2026-05-07 13:37 | 53.75446 | -43.44782 | 39219 ft | 488 kts | 79° |
| 2026-05-07 13:38 | 53.76418 | -43.33422 | 39220 ft | 488 kts | 79° |
| 2026-05-07 13:38 | 53.77372 | -43.22128 | 39228 ft | 487 kts | 79° |
| 2026-05-07 13:39 | 53.78321 | -43.10773 | 39229 ft | 486 kts | 79° |
| 2026-05-07 13:39 | 53.79258 | -42.99438 | 39232 ft | 486 kts | 78° |
| 2026-05-07 13:40 | 53.80185 | -42.88095 | 39235 ft | 487 kts | 79° |
| 2026-05-07 13:40 | 53.81101 | -42.76735 | 39236 ft | 487 kts | 79° |
| 2026-05-07 13:41 | 53.82006 | -42.65376 | 39241 ft | 487 kts | 79° |
| 2026-05-07 13:41 | 53.82896 | -42.54068 | 39243 ft | 487 kts | 79° |
| 2026-05-07 13:42 | 53.83780 | -42.42692 | 39257 ft | 487 kts | 79° |
| 2026-05-07 13:42 | 53.84654 | -42.31305 | 39237 ft | 488 kts | 79° |
| 2026-05-07 13:43 | 53.85519 | -42.19896 | 39247 ft | 488 kts | 79° |
| 2026-05-07 13:43 | 53.86372 | -42.08490 | 39252 ft | 488 kts | 79° |
| 2026-05-07 13:44 | 53.87214 | -41.97084 | 39248 ft | 488 kts | 79° |
| 2026-05-07 13:44 | 53.88046 | -41.85654 | 39257 ft | 488 kts | 79° |
| 2026-05-07 13:45 | 53.88869 | -41.74202 | 39260 ft | 489 kts | 79° |
| 2026-05-07 13:45 | 53.89681 | -41.62747 | 39265 ft | 490 kts | 79° |
| 2026-05-07 13:46 | 53.90482 | -41.51282 | 39261 ft | 490 kts | 79° |
| 2026-05-07 13:46 | 53.91268 | -41.39878 | 39278 ft | 490 kts | 79° |
| 2026-05-07 13:47 | 53.92046 | -41.28415 | 39267 ft | 488 kts | 79° |
| 2026-05-07 13:47 | 53.92812 | -41.16974 | 39289 ft | 488 kts | 79° |
| 2026-05-07 13:48 | 53.93570 | -41.05502 | 39272 ft | 489 kts | 79° |
| 2026-05-07 13:48 | 53.94317 | -40.94021 | 39287 ft | 489 kts | 79° |
| 2026-05-07 13:49 | 53.95053 | -40.82520 | 39283 ft | 489 kts | 79° |
| 2026-05-07 13:49 | 53.95778 | -40.71024 | 39289 ft | 490 kts | 79° |
| 2026-05-07 13:50 | 53.96488 | -40.59599 | 39287 ft | 490 kts | 79° |
| 2026-05-07 13:50 | 53.97191 | -40.48092 | 39285 ft | 490 kts | 79° |
| 2026-05-07 13:51 | 53.97881 | -40.36586 | 39289 ft | 489 kts | 79° |
| 2026-05-07 13:51 | 53.98561 | -40.25094 | 39289 ft | 488 kts | 79° |
| 2026-05-07 13:52 | 53.99230 | -40.13617 | 39289 ft | 488 kts | 79° |
| 2026-05-07 13:52 | 53.99921 | -40.02138 | 39287 ft | 486 kts | 76° |
| 2026-05-07 13:53 | 54.01300 | -39.90956 | 39303 ft | 482 kts | 71° |
| 2026-05-07 13:53 | 54.02857 | -39.79949 | 39288 ft | 481 kts | 70° |
| 2026-05-07 13:54 | 54.04450 | -39.68882 | 39305 ft | 481 kts | 70° |
| 2026-05-07 13:54 | 54.06027 | -39.57807 | 39300 ft | 481 kts | 70° |
| 2026-05-07 13:55 | 54.07586 | -39.46703 | 39307 ft | 481 kts | 71° |
| 2026-05-07 13:55 | 54.09129 | -39.35605 | 39306 ft | 481 kts | 70° |
| 2026-05-07 13:56 | 54.10651 | -39.24570 | 39311 ft | 480 kts | 70° |
| 2026-05-07 13:56 | 54.12169 | -39.13496 | 39310 ft | 479 kts | 70° |
| 2026-05-07 13:57 | 54.13678 | -39.02421 | 39316 ft | 479 kts | 70° |
| 2026-05-07 13:57 | 54.15177 | -38.91330 | 39317 ft | 480 kts | 70° |
| 2026-05-07 13:58 | 54.16664 | -38.80232 | 39322 ft | 480 kts | 70° |
| 2026-05-07 13:58 | 54.18146 | -38.69102 | 39320 ft | 481 kts | 70° |
| 2026-05-07 13:59 | 54.19617 | -38.57963 | 39320 ft | 481 kts | 70° |
| 2026-05-07 13:59 | 54.21080 | -38.46793 | 39318 ft | 481 kts | 70° |
| 2026-05-07 14:00 | 54.22530 | -38.35636 | 39323 ft | 481 kts | 70° |
| 2026-05-07 14:00 | 54.23964 | -38.24525 | 39332 ft | 482 kts | 70° |
| 2026-05-07 14:01 | 54.25401 | -38.13294 | 39329 ft | 483 kts | 70° |
| 2026-05-07 14:01 | 54.26826 | -38.02060 | 39335 ft | 483 kts | 70° |
| 2026-05-07 14:02 | 54.28237 | -37.90844 | 39330 ft | 482 kts | 70° |
| 2026-05-07 14:02 | 54.29639 | -37.79620 | 39330 ft | 481 kts | 70° |
| 2026-05-07 14:03 | 54.31030 | -37.68390 | 39335 ft | 481 kts | 70° |
| 2026-05-07 14:03 | 54.32404 | -37.57220 | 39332 ft | 482 kts | 70° |
| 2026-05-07 14:04 | 54.33778 | -37.45953 | 39331 ft | 482 kts | 70° |
| 2026-05-07 14:04 | 54.35139 | -37.34686 | 39332 ft | 482 kts | 70° |
| 2026-05-07 14:05 | 54.36481 | -37.23490 | 39330 ft | 482 kts | 70° |
| 2026-05-07 14:05 | 54.37822 | -37.12210 | 39332 ft | 482 kts | 70° |
| 2026-05-07 14:06 | 54.39153 | -37.00923 | 39338 ft | 483 kts | 70° |
| 2026-05-07 14:06 | 54.40474 | -36.89654 | 39355 ft | 482 kts | 71° |
| 2026-05-07 14:07 | 54.41783 | -36.78339 | 39333 ft | 483 kts | 71° |
| 2026-05-07 14:07 | 54.43080 | -36.67021 | 39329 ft | 483 kts | 71° |
| 2026-05-07 14:08 | 54.44365 | -36.55704 | 39338 ft | 482 kts | 70° |
| 2026-05-07 14:08 | 54.45635 | -36.44452 | 39334 ft | 482 kts | 70° |
| 2026-05-07 14:09 | 54.46902 | -36.33134 | 39333 ft | 482 kts | 71° |
| 2026-05-07 14:09 | 54.48158 | -36.21804 | 39333 ft | 482 kts | 71° |
| 2026-05-07 14:10 | 54.49405 | -36.10445 | 39333 ft | 483 kts | 71° |
| 2026-05-07 14:10 | 54.50640 | -35.99087 | 39336 ft | 482 kts | 71° |
| 2026-05-07 14:11 | 54.51859 | -35.87764 | 39345 ft | 481 kts | 71° |
| 2026-05-07 14:11 | 54.53068 | -35.76456 | 39345 ft | 481 kts | 71° |
| 2026-05-07 14:12 | 54.54268 | -35.65117 | 39327 ft | 481 kts | 71° |
| 2026-05-07 14:12 | 54.55449 | -35.53855 | 39336 ft | 481 kts | 72° |
| 2026-05-07 14:13 | 54.56631 | -35.42484 | 39339 ft | 482 kts | 72° |
| 2026-05-07 14:13 | 54.57802 | -35.31098 | 39333 ft | 482 kts | 72° |
| 2026-05-07 14:14 | 54.58961 | -35.19700 | 39335 ft | 481 kts | 72° |
| 2026-05-07 14:14 | 54.60101 | -35.08391 | 39329 ft | 482 kts | 72° |
| 2026-05-07 14:15 | 54.61239 | -34.97002 | 39335 ft | 482 kts | 72° |
| 2026-05-07 14:15 | 54.62366 | -34.85595 | 39334 ft | 482 kts | 72° |
| 2026-05-07 14:16 | 54.63483 | -34.74182 | 39333 ft | 482 kts | 72° |
| 2026-05-07 14:16 | 54.64404 | -34.64687 | 39333 ft | 482 kts | 73° |
| 2026-05-07 14:17 | 54.65501 | -34.53256 | 39329 ft | 482 kts | 73° |
| 2026-05-07 14:17 | 54.66588 | -34.41820 | 39332 ft | 482 kts | 73° |
| 2026-05-07 14:18 | 54.67663 | -34.30393 | 39333 ft | 481 kts | 73° |
| 2026-05-07 14:18 | 54.68726 | -34.18965 | 39333 ft | 481 kts | 73° |
| 2026-05-07 14:19 | 54.69779 | -34.07525 | 39333 ft | 481 kts | 73° |
| 2026-05-07 14:19 | 54.70820 | -33.96098 | 39327 ft | 480 kts | 74° |
| 2026-05-07 14:20 | 54.71841 | -33.84761 | 39328 ft | 480 kts | 74° |
| 2026-05-07 14:20 | 54.72859 | -33.73348 | 39343 ft | 480 kts | 75° |
| 2026-05-07 14:21 | 54.73867 | -33.61909 | 39330 ft | 480 kts | 75° |
| 2026-05-07 14:21 | 54.74864 | -33.50477 | 39330 ft | 480 kts | 75° |
| 2026-05-07 14:22 | 54.75850 | -33.39038 | 39330 ft | 480 kts | 75° |
| 2026-05-07 14:22 | 54.76819 | -33.27669 | 39328 ft | 480 kts | 75° |
| 2026-05-07 14:23 | 54.77784 | -33.16211 | 39342 ft | 480 kts | 75° |
| 2026-05-07 14:23 | 54.78739 | -33.04733 | 39330 ft | 481 kts | 76° |
| 2026-05-07 14:24 | 54.79685 | -32.93229 | 39329 ft | 481 kts | 76° |
| 2026-05-07 14:24 | 54.80619 | -32.81725 | 39329 ft | 481 kts | 76° |
| 2026-05-07 14:25 | 54.81538 | -32.70285 | 39328 ft | 481 kts | 76° |
| 2026-05-07 14:25 | 54.82452 | -32.58756 | 39345 ft | 482 kts | 76° |
| 2026-05-07 14:26 | 54.83360 | -32.47181 | 39321 ft | 485 kts | 76° |
| 2026-05-07 14:26 | 54.84252 | -32.35649 | 39323 ft | 485 kts | 76° |
| 2026-05-07 14:27 | 54.85137 | -32.24039 | 39321 ft | 485 kts | 76° |
| 2026-05-07 14:27 | 54.86011 | -32.12428 | 39322 ft | 485 kts | 76° |
| 2026-05-07 14:28 | 54.86876 | -32.00807 | 39344 ft | 486 kts | 76° |
| 2026-05-07 14:28 | 54.87732 | -31.89150 | 39321 ft | 487 kts | 76° |
| 2026-05-07 14:29 | 54.88579 | -31.77455 | 39317 ft | 487 kts | 77° |
| 2026-05-07 14:29 | 54.89407 | -31.65841 | 39320 ft | 487 kts | 77° |
| 2026-05-07 14:30 | 54.90230 | -31.54155 | 39320 ft | 487 kts | 77° |
| 2026-05-07 14:30 | 54.91043 | -31.42449 | 39330 ft | 488 kts | 77° |
| 2026-05-07 14:31 | 54.91844 | -31.30732 | 39318 ft | 487 kts | 77° |
| 2026-05-07 14:31 | 54.92632 | -31.19054 | 39314 ft | 486 kts | 77° |
| 2026-05-07 14:32 | 54.93403 | -31.07454 | 39313 ft | 486 kts | 77° |
| 2026-05-07 14:32 | 54.94169 | -30.95762 | 39314 ft | 486 kts | 77° |
| 2026-05-07 14:33 | 54.94925 | -30.84053 | 39325 ft | 486 kts | 78° |
| 2026-05-07 14:33 | 54.95666 | -30.72378 | 39308 ft | 485 kts | 78° |
| 2026-05-07 14:34 | 54.96395 | -30.60715 | 39306 ft | 484 kts | 78° |
| 2026-05-07 14:34 | 54.97114 | -30.49053 | 39306 ft | 485 kts | 78° |
| 2026-05-07 14:35 | 54.97818 | -30.37436 | 39303 ft | 485 kts | 78° |
| 2026-05-07 14:35 | 54.98514 | -30.25762 | 39322 ft | 485 kts | 78° |
| 2026-05-07 14:36 | 54.99198 | -30.14089 | 39297 ft | 484 kts | 79° |
| 2026-05-07 14:36 | 54.99871 | -30.02417 | 39298 ft | 484 kts | 79° |
| 2026-05-07 14:37 | 55.00467 | -29.90720 | 39296 ft | 485 kts | 81° |
| 2026-05-07 14:37 | 55.01112 | -29.73068 | 39296 ft | 486 kts | 81° |
| 2026-05-07 14:38 | 55.01539 | -29.61318 | 39298 ft | 486 kts | 81° |
| 2026-05-07 14:38 | 55.01975 | -29.49545 | 39291 ft | 487 kts | 81° |
| 2026-05-07 14:39 | 55.02402 | -29.37847 | 39295 ft | 487 kts | 81° |
| 2026-05-07 14:39 | 55.02821 | -29.26070 | 39283 ft | 487 kts | 81° |
| 2026-05-07 14:40 | 55.03229 | -29.14278 | 39282 ft | 487 kts | 81° |
| 2026-05-07 14:40 | 55.03624 | -29.02478 | 39277 ft | 487 kts | 82° |
| 2026-05-07 14:41 | 55.04008 | -28.90678 | 39275 ft | 487 kts | 82° |
| 2026-05-07 14:41 | 55.04378 | -28.78968 | 39272 ft | 487 kts | 82° |
| 2026-05-07 14:42 | 55.04740 | -28.67162 | 39272 ft | 487 kts | 82° |
| 2026-05-07 14:42 | 55.05090 | -28.55359 | 39270 ft | 487 kts | 82° |
| 2026-05-07 14:43 | 55.05429 | -28.43540 | 39276 ft | 487 kts | 82° |
| 2026-05-07 14:43 | 55.05756 | -28.31734 | 39273 ft | 488 kts | 82° |
| 2026-05-07 14:44 | 55.06072 | -28.19907 | 39268 ft | 488 kts | 83° |
| 2026-05-07 14:44 | 55.06374 | -28.08151 | 39263 ft | 488 kts | 83° |
| 2026-05-07 14:45 | 55.06668 | -27.96321 | 39263 ft | 488 kts | 83° |
| 2026-05-07 14:45 | 55.06950 | -27.84488 | 39273 ft | 488 kts | 83° |
| 2026-05-07 14:46 | 55.07220 | -27.72634 | 39263 ft | 488 kts | 83° |
| 2026-05-07 14:46 | 55.07478 | -27.60852 | 39254 ft | 488 kts | 83° |
| 2026-05-07 14:47 | 55.07725 | -27.49010 | 39248 ft | 488 kts | 83° |
| 2026-05-07 14:47 | 55.07961 | -27.37156 | 39249 ft | 488 kts | 83° |
| 2026-05-07 14:48 | 55.08187 | -27.25305 | 39266 ft | 489 kts | 84° |
| 2026-05-07 14:48 | 55.08401 | -27.13416 | 39249 ft | 490 kts | 84° |
| 2026-05-07 14:49 | 55.08603 | -27.01515 | 39238 ft | 490 kts | 84° |
| 2026-05-07 14:49 | 55.08793 | -26.89614 | 39238 ft | 490 kts | 84° |
| 2026-05-07 14:50 | 55.08971 | -26.77795 | 39238 ft | 490 kts | 84° |
| 2026-05-07 14:50 | 55.09139 | -26.65878 | 39258 ft | 490 kts | 84° |
| 2026-05-07 14:51 | 55.09295 | -26.53956 | 39226 ft | 491 kts | 85° |
| 2026-05-07 14:51 | 55.09439 | -26.42037 | 39237 ft | 491 kts | 85° |
| 2026-05-07 14:52 | 55.09572 | -26.30113 | 39226 ft | 491 kts | 85° |
| 2026-05-07 14:52 | 55.09692 | -26.18258 | 39222 ft | 491 kts | 85° |
| 2026-05-07 14:53 | 55.09802 | -26.06323 | 39238 ft | 491 kts | 85° |
| 2026-05-07 14:53 | 55.09901 | -25.94381 | 39221 ft | 492 kts | 85° |
| 2026-05-07 14:54 | 55.09987 | -25.82437 | 39220 ft | 492 kts | 85° |
| 2026-05-07 14:54 | 55.10062 | -25.70475 | 39220 ft | 492 kts | 86° |
| 2026-05-07 14:55 | 55.10125 | -25.58526 | 39215 ft | 492 kts | 86° |
| 2026-05-07 14:55 | 55.10176 | -25.46572 | 39233 ft | 492 kts | 86° |
| 2026-05-07 14:56 | 55.10216 | -25.34606 | 39205 ft | 492 kts | 86° |
| 2026-05-07 14:56 | 55.10244 | -25.22656 | 39204 ft | 492 kts | 86° |
| 2026-05-07 14:57 | 55.10260 | -25.10686 | 39199 ft | 492 kts | 86° |
| 2026-05-07 14:57 | 55.10265 | -24.98796 | 39198 ft | 492 kts | 86° |
| 2026-05-07 14:58 | 55.10258 | -24.86844 | 39198 ft | 492 kts | 86° |
| 2026-05-07 14:58 | 55.10240 | -24.74879 | 39189 ft | 492 kts | 87° |
| 2026-05-07 14:59 | 55.10209 | -24.62909 | 39192 ft | 493 kts | 87° |
| 2026-05-07 14:59 | 55.10167 | -24.50937 | 39184 ft | 493 kts | 87° |
| 2026-05-07 15:00 | 55.10122 | -24.40981 | 39186 ft | 493 kts | 87° |
| 2026-05-07 15:00 | 55.10047 | -24.27054 | 39184 ft | 493 kts | 88° |
| 2026-05-07 15:01 | 55.09983 | -24.17011 | 39185 ft | 493 kts | 88° |
| 2026-05-07 15:01 | 55.09896 | -24.05099 | 39182 ft | 493 kts | 88° |
| 2026-05-07 15:02 | 55.09797 | -23.93120 | 39177 ft | 493 kts | 88° |
| 2026-05-07 15:02 | 55.09686 | -23.81126 | 39169 ft | 493 kts | 88° |
| 2026-05-07 15:03 | 55.09564 | -23.69143 | 39169 ft | 493 kts | 88° |
| 2026-05-07 15:03 | 55.09430 | -23.57158 | 39166 ft | 494 kts | 89° |
| 2026-05-07 15:04 | 55.09283 | -23.45158 | 39158 ft | 494 kts | 89° |
| 2026-05-07 15:04 | 55.09126 | -23.33224 | 39157 ft | 495 kts | 89° |
| 2026-05-07 15:05 | 55.08956 | -23.21213 | 39156 ft | 495 kts | 89° |
| 2026-05-07 15:05 | 55.08774 | -23.09199 | 39154 ft | 495 kts | 89° |
| 2026-05-07 15:06 | 55.08580 | -22.97169 | 39156 ft | 495 kts | 89° |
| 2026-05-07 15:06 | 55.08374 | -22.85164 | 39147 ft | 495 kts | 90° |
| 2026-05-07 15:07 | 55.08157 | -22.73154 | 39146 ft | 495 kts | 90° |
| 2026-05-07 15:07 | 55.07927 | -22.61146 | 39145 ft | 495 kts | 90° |
| 2026-05-07 15:08 | 55.07688 | -22.49210 | 39146 ft | 495 kts | 90° |
| 2026-05-07 15:08 | 55.07435 | -22.37186 | 39145 ft | 495 kts | 90° |
| 2026-05-07 15:09 | 55.07171 | -22.25185 | 39141 ft | 496 kts | 90° |
| 2026-05-07 15:09 | 55.06893 | -22.13154 | 39130 ft | 496 kts | 91° |
| 2026-05-07 15:10 | 55.06606 | -22.01191 | 39135 ft | 496 kts | 91° |
| 2026-05-07 15:10 | 55.06305 | -21.89159 | 39130 ft | 496 kts | 91° |
| 2026-05-07 15:11 | 55.05992 | -21.77108 | 39134 ft | 496 kts | 91° |
| 2026-05-07 15:11 | 55.05667 | -21.65069 | 39123 ft | 496 kts | 91° |
| 2026-05-07 15:12 | 55.05330 | -21.53037 | 39128 ft | 496 kts | 91° |
| 2026-05-07 15:12 | 55.04982 | -21.41019 | 39116 ft | 496 kts | 91° |
| 2026-05-07 15:13 | 55.04624 | -21.29066 | 39122 ft | 496 kts | 92° |
| 2026-05-07 15:13 | 55.04253 | -21.17045 | 39116 ft | 496 kts | 92° |
| 2026-05-07 15:14 | 55.03869 | -21.05016 | 39111 ft | 496 kts | 92° |
| 2026-05-07 15:14 | 55.03473 | -20.92992 | 39114 ft | 496 kts | 92° |
| 2026-05-07 15:15 | 55.03064 | -20.80948 | 39103 ft | 497 kts | 92° |
| 2026-05-07 15:15 | 55.02645 | -20.68931 | 39099 ft | 497 kts | 92° |
| 2026-05-07 15:16 | 55.02217 | -20.56992 | 39104 ft | 497 kts | 93° |
| 2026-05-07 15:16 | 55.01773 | -20.44962 | 39100 ft | 495 kts | 93° |
| 2026-05-07 15:17 | 55.01321 | -20.33047 | 39099 ft | 491 kts | 93° |
| 2026-05-07 15:17 | 55.00859 | -20.21162 | 39095 ft | 491 kts | 93° |
| 2026-05-07 15:18 | 55.00385 | -20.09268 | 39086 ft | 491 kts | 93° |
| 2026-05-07 15:18 | 54.99463 | -19.97504 | 39087 ft | 491 kts | 105° |
| 2026-05-07 15:19 | 54.97622 | -19.86121 | 39091 ft | 491 kts | 107° |
| 2026-05-07 15:19 | 54.95604 | -19.74775 | 39076 ft | 491 kts | 108° |
| 2026-05-07 15:20 | 54.93556 | -19.63433 | 39077 ft | 491 kts | 108° |
| 2026-05-07 15:20 | 54.91515 | -19.52104 | 39076 ft | 491 kts | 108° |
| 2026-05-07 15:21 | 54.89464 | -19.40726 | 39065 ft | 491 kts | 108° |
| 2026-05-07 15:21 | 54.87414 | -19.29402 | 39082 ft | 491 kts | 108° |
| 2026-05-07 15:22 | 54.85366 | -19.18167 | 39058 ft | 491 kts | 108° |
| 2026-05-07 15:22 | 54.83292 | -19.06863 | 39057 ft | 491 kts | 108° |
| 2026-05-07 15:23 | 54.81209 | -18.95579 | 39039 ft | 491 kts | 108° |
| 2026-05-07 15:23 | 54.79115 | -18.84305 | 39052 ft | 493 kts | 109° |
| 2026-05-07 15:24 | 54.77015 | -18.73062 | 39052 ft | 488 kts | 109° |
| 2026-05-07 15:24 | 54.74919 | -18.61908 | 39040 ft | 487 kts | 109° |
| 2026-05-07 15:25 | 54.72812 | -18.50767 | 39050 ft | 487 kts | 109° |
| 2026-05-07 15:25 | 54.70710 | -18.39712 | 39045 ft | 487 kts | 109° |
| 2026-05-07 15:26 | 54.68585 | -18.28603 | 39032 ft | 487 kts | 109° |
| 2026-05-07 15:26 | 54.66446 | -18.17487 | 39038 ft | 487 kts | 109° |
| 2026-05-07 15:27 | 54.64300 | -18.06394 | 39028 ft | 487 kts | 109° |
| 2026-05-07 15:27 | 54.62145 | -17.95322 | 39044 ft | 486 kts | 110° |